Time;durP1;ratioP1;P1;durP2;ratioP2;P2;SDS_P1;SDS_P2;PMS_P1;PMS_P2;Temp;Humidity;BMP_temperature;BMP_pressure;BME280_temperature;BME280_humidity;BME280_pressure;Samples;Min_cycle;Max_cycle;Signal;HPM_P1;HPM_P2
2024/04/18 00:03:26;;;;;;;7.60;6.67;;;;;;;5.27;100.00;100493.13;5341696;26;20233;-86
2024/04/18 00:05:56;;;;;;;8.27;6.57;;;;;;;5.24;100.00;100496.75;5345606;26;20237;-86
2024/04/18 00:08:24;;;;;;;7.23;6.50;;;;;;;5.21;100.00;100496.88;5345413;26;20244;-84
2024/04/18 00:10:57;;;;;;;7.33;6.43;;;;;;;5.19;100.00;100500.53;5344598;26;20233;-87
2024/04/18 00:13:28;;;;;;;6.87;6.00;;;;;;;5.15;100.00;100496.31;5342837;26;20236;-86
2024/04/18 00:15:54;;;;;;;6.40;5.53;;;;;;;5.11;100.00;100506.16;5343138;26;20794;-85
2024/04/18 00:18:24;;;;;;;5.90;5.30;;;;;;;5.03;100.00;100502.09;5344171;26;20244;-86
2024/04/18 00:20:50;;;;;;;6.33;5.00;;;;;;;4.96;100.00;100503.31;5348627;26;20237;-84
2024/04/18 00:23:25;;;;;;;6.70;5.40;;;;;;;4.91;100.00;100507.91;5351826;26;20296;-85
2024/04/18 00:25:51;;;;;;;6.77;6.13;;;;;;;4.81;100.00;100513.59;5344722;26;20244;-84
2024/04/18 00:28:19;;;;;;;6.87;5.40;;;;;;;4.74;100.00;100511.25;5344343;26;20280;-84
2024/04/18 00:30:48;;;;;;;6.93;5.90;;;;;;;4.68;100.00;100512.34;5341477;26;20424;-84
2024/04/18 00:33:16;;;;;;;7.77;6.63;;;;;;;4.64;100.00;100510.78;5344015;26;20240;-85
2024/04/18 00:35:45;;;;;;;8.33;6.77;;;;;;;4.61;100.00;100513.56;5344056;26;20267;-85
2024/04/18 00:38:13;;;;;;;8.97;7.13;;;;;;;4.61;100.00;100510.91;5338590;26;20249;-85
2024/04/18 00:40:44;;;;;;;10.87;9.00;;;;;;;4.60;100.00;100516.25;5336778;26;20291;-84
2024/04/18 00:43:13;;;;;;;9.83;7.97;;;;;;;4.59;100.00;100517.16;5352278;26;20279;-85
2024/04/18 00:45:39;;;;;;;10.00;8.33;;;;;;;4.56;100.00;100515.50;5345690;26;20245;-85
2024/04/18 00:48:11;;;;;;;9.53;8.03;;;;;;;4.56;100.00;100522.56;5355638;26;20799;-81
2024/04/18 00:50:38;;;;;;;8.73;7.40;;;;;;;4.52;100.00;100527.09;5343044;26;20229;-82
2024/04/18 00:53:06;;;;;;;7.73;6.37;;;;;;;4.46;100.00;100514.19;5342780;26;20221;-83
2024/04/18 00:55:35;;;;;;;9.60;7.97;;;;;;;4.43;100.00;100523.06;5342953;26;20237;-84
2024/04/18 00:58:06;;;;;;;8.80;7.63;;;;;;;4.43;100.00;100524.84;5343116;26;20240;-83
2024/04/18 01:00:32;;;;;;;10.87;8.50;;;;;;;4.40;100.00;100525.81;5332308;26;20237;-84
2024/04/18 01:03:04;;;;;;;9.90;8.50;;;;;;;4.38;100.00;100521.53;5342888;26;20630;-84
2024/04/18 01:05:42;;;;;;;10.80;8.10;;;;;;;4.36;100.00;100516.31;5343007;26;20322;-82
2024/04/18 01:08:14;;;;;;;11.40;7.97;;;;;;;4.36;100.00;100523.38;5342706;26;20241;-84
2024/04/18 01:10:44;;;;;;;9.53;7.60;;;;;;;4.35;100.00;100526.91;5343170;26;20245;-82
2024/04/18 01:13:17;;;;;;;12.53;8.70;;;;;;;4.34;100.00;100527.84;5342606;26;20258;-83
2024/04/18 01:15:45;;;;;;;10.67;7.90;;;;;;;4.32;100.00;100532.31;5343364;26;20236;-84
2024/04/18 01:18:11;;;;;;;9.50;7.13;;;;;;;4.31;100.00;100527.94;5344306;26;20275;-84
2024/04/18 01:23:55;;;;;;;8.33;7.17;;;;;;;4.26;100.00;100538.69;5333564;26;20324;-85
2024/04/18 01:26:24;;;;;;;9.87;6.73;;;;;;;4.23;100.00;100530.91;5342273;26;20584;-86
2024/04/18 01:28:52;;;;;;;10.47;7.63;;;;;;;4.19;100.00;100539.84;5355781;26;20241;-86
2024/04/18 01:31:18;;;;;;;9.30;7.13;;;;;;;4.16;100.00;100540.81;5343457;26;20721;-86
2024/04/18 01:33:49;;;;;;;7.80;7.00;;;;;;;4.15;100.00;100547.00;5346102;26;20237;-85
2024/04/18 01:36:15;;;;;;;8.03;6.43;;;;;;;4.13;100.00;100546.22;5349726;26;20229;-85
2024/04/18 01:38:43;;;;;;;9.50;7.20;;;;;;;4.12;100.00;100546.28;5342080;26;20695;-85
2024/04/18 01:41:09;;;;;;;8.77;7.23;;;;;;;4.12;100.00;100544.47;5342541;26;20264;-85
2024/04/18 01:43:40;;;;;;;6.70;5.80;;;;;;;4.08;100.00;100548.19;5347849;26;20241;-84
2024/04/18 01:46:06;;;;;;;8.00;7.03;;;;;;;4.05;100.00;100548.28;5343190;26;20607;-86
2024/04/18 01:48:37;;;;;;;8.50;7.40;;;;;;;4.02;100.00;100553.69;5349144;26;20236;-86
2024/04/18 01:51:07;;;;;;;9.77;7.57;;;;;;;4.03;100.00;100563.31;5346788;26;20271;-83
2024/04/18 01:53:41;;;;;;;9.30;7.97;;;;;;;4.01;100.00;100556.38;5352070;26;20720;-83
2024/04/18 01:56:07;;;;;;;9.70;8.00;;;;;;;3.99;100.00;100556.41;5352048;26;20278;-86
2024/04/18 01:58:40;;;;;;;11.97;9.23;;;;;;;4.02;100.00;100566.84;5347964;26;20245;-84
2024/04/18 02:01:06;;;;;;;10.60;8.33;;;;;;;4.05;100.00;100561.47;5346299;26;20241;-82
2024/04/18 02:03:36;;;;;;;9.47;8.43;;;;;;;4.09;100.00;100567.50;5346554;26;20673;-85
2024/04/18 02:06:03;;;;;;;11.43;9.40;;;;;;;4.12;100.00;100565.56;5350307;26;20822;-84
2024/04/18 02:08:32;;;;;;;10.30;8.63;;;;;;;4.17;100.00;100565.41;5351734;26;20283;-85
2024/04/18 02:11:01;;;;;;;9.87;8.53;;;;;;;4.18;100.00;100565.34;5353168;26;20302;-85
2024/04/18 02:13:29;;;;;;;11.53;8.60;;;;;;;4.23;100.00;100575.72;5354314;26;20236;-84
2024/04/18 02:15:58;;;;;;;10.77;7.83;;;;;;;4.25;100.00;100578.31;5354157;26;20237;-83
2024/04/18 02:18:26;;;;;;;9.63;8.13;;;;;;;4.26;100.00;100577.38;5346164;26;20349;-84
2024/04/18 02:20:53;;;;;;;10.10;7.70;;;;;;;4.29;100.00;100574.63;5351286;26;20233;-85
2024/04/18 02:23:22;;;;;;;11.27;8.60;;;;;;;4.31;100.00;100571.00;5350762;26;20233;-84
2024/04/18 02:25:48;;;;;;;10.93;7.93;;;;;;;4.34;100.00;100588.47;5344276;26;20249;-84
2024/04/18 02:28:16;;;;;;;10.70;7.63;;;;;;;4.36;100.00;100581.38;5345433;26;20315;-84
2024/04/18 02:30:44;;;;;;;10.37;7.87;;;;;;;4.39;100.00;100583.88;5344303;26;20225;-84
2024/04/18 02:33:17;;;;;;;10.10;8.03;;;;;;;4.39;100.00;100591.81;5345910;26;20612;-84
2024/04/18 02:35:46;;;;;;;11.53;8.20;;;;;;;4.41;100.00;100592.59;5344396;26;20237;-87
2024/04/18 02:38:17;;;;;;;11.00;8.57;;;;;;;4.41;100.00;100587.34;5344566;26;20241;-86
2024/04/18 02:40:45;;;;;;;10.27;8.00;;;;;;;4.40;100.00;100599.66;5348104;26;21052;-84
2024/04/18 02:43:17;;;;;;;9.60;8.63;;;;;;;4.41;100.00;100595.25;5345165;26;20342;-85
2024/04/18 02:45:43;;;;;;;10.83;8.60;;;;;;;4.41;100.00;100592.59;5343296;26;20241;-84
2024/04/18 02:48:11;;;;;;;12.70;9.20;;;;;;;4.38;100.00;100598.00;5346891;26;20383;-83
2024/04/18 02:50:40;;;;;;;11.83;9.83;;;;;;;4.37;100.00;100598.91;5342855;26;20271;-83
2024/04/18 02:53:11;;;;;;;12.80;10.13;;;;;;;4.35;100.00;100606.00;5343732;26;20232;-83
2024/04/18 02:55:37;;;;;;;13.73;9.77;;;;;;;4.34;100.00;100604.28;5334495;26;20236;-86
2024/04/18 02:58:06;;;;;;;11.07;9.53;;;;;;;4.30;100.00;100610.63;5345986;26;20241;-86
2024/04/18 03:00:37;;;;;;;11.70;9.33;;;;;;;4.26;100.00;100604.59;5343841;26;20412;-87
2024/04/18 03:03:08;;;;;;;13.87;10.83;;;;;;;4.25;100.00;100608.16;5345799;26;20241;-85
2024/04/18 03:06:02;;;;;;;11.30;9.03;;;;;;;4.24;100.00;100616.13;5354926;26;20245;-84
2024/04/18 03:08:31;;;;;;;11.17;9.27;;;;;;;4.23;100.00;100606.50;5345377;26;20245;-85
2024/04/18 03:10:56;;;;;;;11.40;9.60;;;;;;;4.22;100.00;100612.69;5343511;26;20691;-86
2024/04/18 03:13:25;;;;;;;13.97;9.53;;;;;;;4.18;100.00;100615.44;5345272;26;20240;-87
2024/04/18 03:15:50;;;;;;;19.00;14.50;;;;;;;4.15;100.00;100612.91;5341313;26;20745;-85
2024/04/18 03:18:22;;;;;;;11.90;9.77;;;;;;;4.12;100.00;100612.19;5345102;26;20270;-83
2024/04/18 03:20:51;;;;;;;11.60;10.07;;;;;;;4.11;100.00;100613.97;5346485;26;20272;-86
2024/04/18 03:23:25;;;;;;;12.13;9.87;;;;;;;4.08;100.00;100610.56;5341516;26;20654;-84
2024/04/18 03:25:54;;;;;;;14.07;10.20;;;;;;;4.07;100.00;100614.97;5342369;26;20232;-86
2024/04/18 03:28:22;;;;;;;11.67;9.83;;;;;;;4.06;100.00;100622.94;5342343;26;20240;-85
2024/04/18 03:31:03;;;;;;;13.13;10.80;;;;;;;4.03;100.00;100625.69;5342911;26;20279;-87
2024/04/18 03:33:34;;;;;;;14.17;11.40;;;;;;;4.02;100.00;100627.47;5338889;26;20240;-86
2024/04/18 03:36:04;;;;;;;13.20;11.17;;;;;;;4.02;100.00;100622.19;5342400;26;20236;-85
2024/04/18 03:38:44;;;;;;;13.63;10.73;;;;;;;4.01;100.00;100631.00;5341236;26;20237;-85
2024/04/18 03:41:13;;;;;;;11.90;10.27;;;;;;;4.02;100.00;100632.72;5339754;26;20236;-85
2024/04/18 03:43:41;;;;;;;12.33;9.77;;;;;;;4.02;100.00;100632.72;5333463;26;20288;-85
2024/04/18 03:46:10;;;;;;;12.63;9.83;;;;;;;4.01;100.00;100636.28;5341392;26;20586;-86
2024/04/18 03:48:38;;;;;;;11.83;9.97;;;;;;;4.01;100.00;100636.28;5337338;26;20304;-85
2024/04/18 03:51:07;;;;;;;11.67;9.87;;;;;;;3.99;100.00;100637.25;5342020;26;20257;-85
2024/04/18 03:53:37;;;;;;;11.37;8.90;;;;;;;3.97;100.00;100634.66;5340183;26;20283;-85
2024/04/18 03:56:06;;;;;;;11.30;9.50;;;;;;;3.98;100.00;100646.94;5342920;26;20233;-85
2024/04/18 03:58:32;;;;;;;13.00;9.90;;;;;;;3.97;100.00;100637.28;5336325;26;20729;-86
2024/04/18 04:01:00;;;;;;;10.93;9.47;;;;;;;3.95;100.00;100639.13;5334892;26;20237;-85
2024/04/18 04:03:26;;;;;;;12.17;9.80;;;;;;;3.95;100.00;100649.66;5341958;26;20279;-85
2024/04/18 04:05:54;;;;;;;9.87;8.50;;;;;;;3.93;100.00;100648.88;5338999;26;20236;-85
2024/04/18 04:08:20;;;;;;;10.70;8.87;;;;;;;3.92;100.00;100649.81;5340588;26;20232;-85
2024/04/18 04:10:51;;;;;;;12.23;9.73;;;;;;;3.89;100.00;100657.81;5327864;26;20238;-86
2024/04/18 04:13:17;;;;;;;11.00;9.53;;;;;;;3.88;100.00;100660.50;5343850;26;20843;-86
2024/04/18 04:15:48;;;;;;;11.27;9.53;;;;;;;3.86;100.00;100662.31;5342241;26;20232;-84
2024/04/18 04:18:14;;;;;;;12.63;9.80;;;;;;;3.86;100.00;100657.91;5337398;26;20318;-86
2024/04/18 04:20:43;;;;;;;9.87;8.87;;;;;;;3.84;100.00;100665.88;5340013;26;20233;-85
2024/04/18 04:23:09;;;;;;;11.67;9.60;;;;;;;3.85;100.00;100666.72;5333482;26;20266;-86
2024/04/18 04:25:37;;;;;;;12.87;10.13;;;;;;;3.84;100.00;100665.88;5336603;26;20229;-84
2024/04/18 04:28:06;;;;;;;11.27;9.77;;;;;;;3.84;100.00;100675.56;5339542;26;20233;-84
2024/04/18 04:30:34;;;;;;;12.83;10.23;;;;;;;3.83;100.00;100679.97;5334428;26;20587;-85
2024/04/18 04:33:00;;;;;;;13.43;9.93;;;;;;;3.82;100.00;100687.91;5339953;26;20931;-84
2024/04/18 04:35:28;;;;;;;11.30;9.70;;;;;;;3.82;100.00;100683.50;5339545;26;20233;-86
2024/04/18 04:37:54;;;;;;;12.77;9.20;;;;;;;3.81;100.00;100687.06;5329602;26;20268;-86
2024/04/18 04:40:22;;;;;;;10.90;8.83;;;;;;;3.85;100.00;100693.06;5335299;26;20749;-86
2024/04/18 04:42:48;;;;;;;10.00;8.50;;;;;;;3.86;100.00;100702.72;5330834;26;20833;-85
2024/04/18 04:45:21;;;;;;;9.93;8.90;;;;;;;3.88;100.00;100705.28;5341021;26;20272;-86
2024/04/18 04:47:50;;;;;;;10.80;8.27;;;;;;;3.89;100.00;100710.50;5327102;26;20233;-85
2024/04/18 04:50:18;;;;;;;10.40;7.40;;;;;;;3.90;100.00;100711.38;5339325;26;20627;-86
2024/04/18 04:52:44;;;;;;;10.23;7.60;;;;;;;3.90;100.00;100714.00;5339337;26;20335;-85
2024/04/18 04:55:12;;;;;;;9.23;7.43;;;;;;;3.91;100.00;100719.22;5343399;26;20289;-84
2024/04/18 04:57:37;;;;;;;9.53;7.83;;;;;;;3.93;100.00;100724.44;5344750;26;20729;-86
2024/04/18 05:00:07;;;;;;;9.37;7.40;;;;;;;3.93;100.00;100733.22;5343080;26;20279;-85
2024/04/18 05:02:35;;;;;;;8.73;7.53;;;;;;;3.96;100.00;100732.22;5338548;26;20279;-84
2024/04/18 05:05:03;;;;;;;8.53;6.77;;;;;;;3.95;100.00;100728.72;5345755;26;20842;-84
2024/04/18 05:07:29;;;;;;;7.30;6.57;;;;;;;3.96;100.00;100733.06;5334774;26;20245;-84
2024/04/18 05:09:57;;;;;;;8.00;6.47;;;;;;;3.98;100.00;100743.56;5340521;26;20229;-85
2024/04/18 05:12:23;;;;;;;8.93;6.73;;;;;;;3.99;100.00;100743.50;5337002;26;20233;-84
2024/04/18 05:14:51;;;;;;;7.83;6.60;;;;;;;4.01;100.00;100741.69;5339363;26;20279;-84
2024/04/18 05:17:20;;;;;;;9.93;6.17;;;;;;;4.04;100.00;100741.59;5341078;26;20229;-84
2024/04/18 05:19:51;;;;;;;7.03;6.33;;;;;;;4.06;100.00;100749.44;5339661;26;20741;-83
2024/04/18 05:22:17;;;;;;;7.73;6.17;;;;;;;4.07;100.00;100749.38;5343945;26;20279;-85
2024/04/18 05:24:45;;;;;;;7.30;6.10;;;;;;;4.09;100.00;100758.09;5342794;26;20247;-85
2024/04/18 05:27:11;;;;;;;8.20;6.60;;;;;;;4.12;100.00;100763.25;5345819;26;20237;-85
2024/04/18 05:32:23;;;;;;;7.60;6.47;;;;;;;4.17;100.00;100774.50;5336824;26;20297;-85
2024/04/18 05:34:57;;;;;;;7.50;6.70;;;;;;;4.19;100.00;100770.03;5336688;26;20245;-86
2024/04/18 05:37:25;;;;;;;7.43;6.63;;;;;;;4.24;100.00;100769.03;5347233;26;20272;-86
2024/04/18 05:39:54;;;;;;;7.13;5.93;;;;;;;4.26;100.00;100773.31;5333724;26;20245;-85
2024/04/18 05:42:22;;;;;;;7.47;5.83;;;;;;;4.32;100.00;100778.34;5342802;26;20263;-85
2024/04/18 05:44:50;;;;;;;7.53;6.63;;;;;;;4.38;100.00;100779.94;5348194;26;20271;-86
2024/04/18 05:47:16;;;;;;;7.80;7.00;;;;;;;4.46;100.00;100776.13;5341453;26;20232;-86
2024/04/18 05:49:44;;;;;;;6.90;5.93;;;;;;;4.54;100.00;100768.75;5340872;26;20398;-86
2024/04/18 05:52:15;;;;;;;7.73;6.40;;;;;;;4.67;100.00;100784.13;5349524;26;20237;-85
2024/04/18 05:54:43;;;;;;;8.50;7.00;;;;;;;4.74;100.00;100790.91;5345962;26;20270;-86
2024/04/18 05:57:12;;;;;;;8.73;6.63;;;;;;;4.80;100.00;100790.69;5345493;26;20264;-85
2024/04/18 05:59:40;;;;;;;8.83;6.60;;;;;;;4.85;100.00;100800.16;5345981;26;20724;-84
2024/04/18 06:02:08;;;;;;;6.93;6.23;;;;;;;4.87;100.00;100790.41;5340510;26;20279;-85
2024/04/18 06:04:37;;;;;;;6.93;6.23;;;;;;;4.88;100.00;100805.31;5339513;26;20240;-87
2024/04/18 06:07:06;;;;;;;6.67;6.07;;;;;;;4.91;100.00;100808.75;5352175;26;20284;-84
2024/04/18 06:09:50;;;;;;;8.43;6.43;;;;;;;4.97;100.00;100813.81;5345770;26;20241;-84
2024/04/18 06:12:51;;;;;;;7.97;6.60;;;;;;;5.02;100.00;100811.84;5348459;26;20240;-86
2024/04/18 06:15:19;;;;;;;7.10;6.40;;;;;;;5.08;100.00;100812.47;5345165;26;20287;-85
2024/04/18 06:17:47;;;;;;;8.53;7.57;;;;;;;5.15;100.00;100805.19;5347956;26;20260;-85
2024/04/18 06:20:16;;;;;;;8.07;7.07;;;;;;;5.22;100.00;100812.81;5355221;26;20268;-86
2024/04/18 06:22:44;;;;;;;10.00;7.80;;;;;;;5.28;100.00;100806.44;5353603;26;20245;-86
2024/04/18 06:25:16;;;;;;;9.17;8.23;;;;;;;5.39;100.00;100817.44;5355910;26;20276;-86
2024/04/18 06:27:45;;;;;;;8.53;7.63;;;;;;;5.55;100.00;100817.72;5348746;26;20276;-86
2024/04/18 06:30:13;;;;;;;9.43;7.83;;;;;;;5.75;100.00;100830.09;5352332;26;20237;-86
2024/04/18 06:32:42;;;;;;;9.57;7.50;;;;;;;5.97;100.00;100827.47;5355678;26;20274;-86
2024/04/18 06:35:10;;;;;;;10.00;8.23;;;;;;;6.18;100.00;100830.06;5355515;26;20276;-86
2024/04/18 06:37:38;;;;;;;9.57;7.53;;;;;;;6.35;100.00;100839.06;5331230;26;20253;-86
2024/04/18 06:40:07;;;;;;;9.83;7.87;;;;;;;6.44;100.00;100841.34;5342877;26;20245;-85
2024/04/18 06:42:38;;;;;;;8.87;7.60;;;;;;;6.49;100.00;100840.19;5343098;26;20283;-86
2024/04/18 06:45:07;;;;;;;9.80;7.67;;;;;;;6.56;100.00;100846.09;5344851;26;20254;-85
2024/04/18 06:47:35;;;;;;;9.90;7.47;;;;;;;6.62;100.00;100840.53;5342548;26;20268;-84
2024/04/18 06:50:04;;;;;;;9.23;7.70;;;;;;;6.66;100.00;100846.53;5338611;26;20276;-85
2024/04/18 06:52:33;;;;;;;10.07;7.47;;;;;;;6.71;100.00;100847.19;5336048;26;20804;-85
2024/04/18 06:55:02;;;;;;;10.20;7.53;;;;;;;6.74;100.00;100842.63;5344360;26;20275;-86
2024/04/18 06:57:30;;;;;;;9.33;7.20;;;;;;;6.83;100.00;100844.84;5330820;26;20236;-87
2024/04/18 07:00:01;;;;;;;11.73;8.00;;;;;;;6.96;100.00;100846.03;5341116;26;20287;-87
2024/04/18 07:02:29;;;;;;;9.50;7.57;;;;;;;7.05;100.00;100846.53;5342447;26;20237;-85
2024/04/18 07:04:57;;;;;;;8.27;6.90;;;;;;;7.10;100.00;100852.50;5343137;26;20287;-86
2024/04/18 07:07:26;;;;;;;8.77;7.37;;;;;;;7.13;99.48;100852.34;5339960;26;20279;-85
2024/04/18 07:09:54;;;;;;;8.73;6.67;;;;;;;7.18;99.27;100855.63;5339631;26;20233;-87
2024/04/18 07:12:22;;;;;;;8.80;7.57;;;;;;;7.25;98.77;100862.38;5340983;26;20237;-86
2024/04/18 07:14:50;;;;;;;8.13;7.33;;;;;;;7.32;98.34;100869.97;5345624;26;20235;-86
2024/04/18 07:17:21;;;;;;;8.27;6.90;;;;;;;7.42;98.25;100867.75;5333678;26;20240;-85
2024/04/18 07:19:50;;;;;;;10.80;8.87;;;;;;;7.48;97.13;100862.16;5339669;26;20241;-85
2024/04/18 07:22:18;;;;;;;9.70;8.63;;;;;;;7.60;96.21;100871.31;5342814;26;20260;-86
2024/04/18 07:24:47;;;;;;;10.87;8.27;;;;;;;7.67;94.86;100864.81;5343722;26;20733;-86
2024/04/18 07:27:15;;;;;;;9.60;8.03;;;;;;;7.70;94.32;100869.09;5343309;26;20287;-85
2024/04/18 07:29:43;;;;;;;14.33;8.93;;;;;;;7.79;95.32;100872.16;5341497;26;20283;-85
2024/04/18 07:32:11;;;;;;;10.87;8.30;;;;;;;7.97;94.85;100876.56;5344352;26;20237;-86
2024/04/18 07:34:42;;;;;;;9.27;7.20;;;;;;;8.10;93.82;100871.50;5343230;26;20237;-85
2024/04/18 07:37:11;;;;;;;10.27;7.87;;;;;;;8.19;92.62;100879.03;5344223;26;20287;-85
2024/04/18 07:39:40;;;;;;;9.53;7.70;;;;;;;8.30;91.87;100881.13;5348958;26;20244;-85
2024/04/18 07:42:11;;;;;;;8.63;6.63;;;;;;;8.33;90.77;100875.72;5344191;26;20236;-86
2024/04/18 07:44:39;;;;;;;9.87;7.77;;;;;;;8.40;91.02;100876.28;5340688;26;20363;-86
2024/04/18 07:47:08;;;;;;;9.70;7.17;;;;;;;8.39;89.48;100882.50;5345702;26;20287;-86
2024/04/18 07:49:37;;;;;;;10.33;7.10;;;;;;;8.38;89.46;100876.34;5342600;26;20243;-86
2024/04/18 07:52:10;;;;;;;7.13;6.30;;;;;;;8.38;88.77;100888.75;5335656;26;20233;-87
2024/04/18 07:54:38;;;;;;;7.13;6.23;;;;;;;8.47;87.51;100889.13;5343685;26;20237;-86
2024/04/18 07:57:06;;;;;;;9.53;5.83;;;;;;;8.60;87.18;100892.88;5337948;26;20245;-86
2024/04/18 07:59:35;;;;;;;6.87;5.50;;;;;;;8.77;86.80;100892.03;5340067;26;20249;-87
2024/04/18 08:02:03;;;;;;;6.07;5.47;;;;;;;8.94;85.07;100894.66;5342508;26;21187;-87
2024/04/18 08:04:35;;;;;;;6.90;5.20;;;;;;;9.13;84.63;100899.00;5336531;26;20291;-86
2024/04/18 08:07:03;;;;;;;6.37;5.50;;;;;;;9.30;82.82;100890.97;5341860;26;20234;-84
2024/04/18 08:09:34;;;;;;;6.47;5.23;;;;;;;9.45;81.71;100895.47;5343148;26;20292;-84
2024/04/18 08:12:03;;;;;;;6.13;4.93;;;;;;;9.60;81.33;100910.56;5342446;26;20237;-83
2024/04/18 08:14:31;;;;;;;4.90;4.13;;;;;;;9.75;79.42;100903.53;5333769;26;20345;-85
2024/04/18 08:16:59;;;;;;;5.23;4.27;;;;;;;9.88;76.75;100899.22;5341750;26;20283;-84
2024/04/18 08:19:33;;;;;;;7.13;4.43;;;;;;;10.03;75.37;100902.84;5333140;26;20238;-87
2024/04/18 08:22:02;;;;;;;6.07;5.27;;;;;;;10.13;75.58;100909.34;5340184;26;20240;-86
2024/04/18 08:24:33;;;;;;;6.47;5.00;;;;;;;10.23;75.44;100902.56;5343442;26;20280;-85
2024/04/18 08:27:04;;;;;;;5.07;4.57;;;;;;;10.36;74.05;100906.25;5340915;26;20237;-84
2024/04/18 08:29:32;;;;;;;5.17;4.70;;;;;;;10.44;73.52;100904.00;5343234;26;20244;-84
2024/04/18 08:32:01;;;;;;;4.23;3.70;;;;;;;10.43;69.81;100909.41;5343779;26;20733;-84
2024/04/18 08:34:29;;;;;;;4.33;3.90;;;;;;;10.44;69.73;100911.97;5344095;26;20242;-86
2024/04/18 08:36:57;;;;;;;5.83;4.40;;;;;;;10.52;70.71;100916.00;5343491;26;20623;-84
2024/04/18 08:39:26;;;;;;;5.10;4.60;;;;;;;10.69;71.11;100913.19;5343431;26;20247;-84
2024/04/18 08:41:57;;;;;;;4.90;4.50;;;;;;;10.85;70.56;100916.66;5343239;26;20574;-84
2024/04/18 08:44:28;;;;;;;4.80;4.40;;;;;;;11.02;70.08;100912.97;5342997;26;20243;-84
2024/04/18 08:47:00;;;;;;;4.50;4.10;;;;;;;11.03;65.44;100912.88;5341007;26;20619;-84
2024/04/18 08:49:35;;;;;;;5.50;4.60;;;;;;;11.02;66.74;100908.50;5343898;26;20281;-84
2024/04/18 08:52:04;;;;;;;5.33;4.83;;;;;;;11.10;67.27;100914.22;5342916;26;20251;-83
2024/04/18 08:54:32;;;;;;;4.40;4.00;;;;;;;11.22;65.37;100911.75;5344393;26;20654;-84
2024/04/18 08:57:04;;;;;;;3.83;3.43;;;;;;;11.31;63.30;100916.50;5340664;26;20775;-84
2024/04/18 08:59:35;;;;;;;4.00;3.03;;;;;;;11.26;62.36;100908.81;5338670;26;20244;-83
2024/04/18 09:02:04;;;;;;;4.00;3.60;;;;;;;11.26;62.64;100911.47;5342177;26;20753;-83
2024/04/18 09:04:34;;;;;;;4.10;3.10;;;;;;;11.23;60.98;100910.81;5344453;26;20275;-84
2024/04/18 09:07:03;;;;;;;3.60;3.30;;;;;;;11.21;60.80;100912.69;5341071;26;20285;-84
2024/04/18 09:09:31;;;;;;;5.03;3.20;;;;;;;11.31;60.59;100911.16;5336520;26;20245;-83
2024/04/18 09:11:59;;;;;;;4.23;3.83;;;;;;;11.51;61.86;100913.44;5339529;26;20237;-85
2024/04/18 09:14:28;;;;;;;3.90;3.47;;;;;;;11.67;61.02;100918.66;5344342;26;20233;-84
2024/04/18 09:16:59;;;;;;;5.30;3.37;;;;;;;11.67;61.00;100918.66;5344112;26;20284;-86
2024/04/18 09:19:25;;;;;;;3.60;3.30;;;;;;;11.70;61.08;100922.00;5344487;26;20243;-84
2024/04/18 09:21:54;;;;;;;4.63;3.20;;;;;;;11.87;60.79;100915.63;5343210;26;20279;-83
2024/04/18 09:24:22;;;;;;;4.67;3.23;;;;;;;12.08;60.10;100924.03;5343873;26;20283;-85
2024/04/18 09:26:52;;;;;;;3.37;3.07;;;;;;;12.19;57.53;100916.19;5343487;26;20233;-84
2024/04/18 09:29:20;;;;;;;4.50;2.93;;;;;;;12.21;56.98;100921.41;5344143;26;20289;-83
2024/04/18 09:31:49;;;;;;;3.97;3.40;;;;;;;12.18;57.88;100918.00;5343574;26;20600;-83
2024/04/18 09:34:21;;;;;;;3.13;2.83;;;;;;;12.16;57.23;100922.59;5343742;26;20237;-84
2024/04/18 09:36:50;;;;;;;3.87;3.20;;;;;;;12.08;57.83;100926.72;5342408;26;20286;-84
2024/04/18 09:39:28;;;;;;;4.10;3.30;;;;;;;12.00;57.17;100921.03;5342831;26;20237;-85
2024/04/18 09:42:10;;;;;;;3.40;2.97;;;;;;;11.91;58.48;100929.63;5344347;26;20240;-85
2024/04/18 09:44:42;;;;;;;4.37;3.70;;;;;;;11.85;58.26;100928.19;5337288;26;20226;-85
2024/04/18 09:47:12;;;;;;;4.47;3.80;;;;;;;11.79;59.04;100929.47;5343519;26;20240;-83
2024/04/18 09:49:44;;;;;;;5.23;4.47;;;;;;;11.71;59.16;100929.06;5344487;26;20287;-85
2024/04/18 09:52:14;;;;;;;7.67;5.50;;;;;;;11.80;59.88;100933.84;5334392;26;20233;-85
2024/04/18 09:54:43;;;;;;;7.73;4.13;;;;;;;11.84;59.46;100934.47;5346319;26;20275;-84
2024/04/18 09:57:20;;;;;;;3.93;3.60;;;;;;;11.77;57.05;100936.72;5342743;26;20239;-84
2024/04/18 09:59:50;;;;;;;4.63;4.07;;;;;;;11.67;57.98;100930.19;5344430;26;20248;-83
2024/04/18 10:02:21;;;;;;;4.87;4.23;;;;;;;11.62;59.18;100931.47;5345424;26;20240;-83
2024/04/18 10:04:52;;;;;;;4.90;3.87;;;;;;;11.59;59.67;100932.50;5344530;26;20241;-83
2024/04/18 10:07:23;;;;;;;4.63;3.47;;;;;;;11.61;59.66;100943.09;5343103;26;20286;-84
2024/04/18 10:09:53;;;;;;;4.83;3.80;;;;;;;11.63;60.20;100935.84;5343667;26;20242;-84
2024/04/18 10:12:21;;;;;;;5.23;3.73;;;;;;;11.71;58.95;100925.53;5343740;26;20738;-84
2024/04/18 10:14:51;;;;;;;3.20;2.77;;;;;;;11.81;57.52;100932.91;5344915;26;20239;-84
2024/04/18 10:17:32;;;;;;;3.30;2.83;;;;;;;11.90;56.13;100926.09;5344235;26;20237;-83
2024/04/18 10:20:07;;;;;;;5.40;3.13;;;;;;;12.02;57.06;100925.28;5342654;26;20242;-83
2024/04/18 10:22:37;;;;;;;5.17;3.33;;;;;;;12.21;56.04;100913.41;5336653;26;20236;-84
2024/04/18 10:25:07;;;;;;;3.77;3.10;;;;;;;12.31;55.08;100920.72;5344781;26;20232;-84
2024/04/18 10:27:44;;;;;;;3.57;3.03;;;;;;;12.36;54.42;100913.25;5343239;26;20275;-85
2024/04/18 10:30:16;;;;;;;4.17;3.30;;;;;;;12.38;54.24;100924.69;5339681;26;20241;-83
2024/04/18 10:32:48;;;;;;;2.83;2.53;;;;;;;12.32;53.45;100917.09;5346244;26;20228;-84
2024/04/18 10:35:19;;;;;;;3.00;2.67;;;;;;;12.28;52.33;100915.59;5342294;26;20792;-84
2024/04/18 10:37:54;;;;;;;3.40;2.20;;;;;;;12.35;52.57;100921.38;5345796;26;20236;-83
2024/04/18 10:40:22;;;;;;;3.77;2.27;;;;;;;12.44;51.23;100932.31;5343886;26;20241;-83
2024/04/18 10:42:51;;;;;;;3.43;2.37;;;;;;;12.51;51.21;100920.25;5334621;26;20301;-85
2024/04/18 10:45:16;;;;;;;3.33;2.00;;;;;;;12.59;51.01;100916.19;5348859;26;20237;-84
2024/04/18 10:47:48;;;;;;;4.33;2.30;;;;;;;12.66;50.37;100906.81;5349514;26;20241;-84
2024/04/18 10:50:18;;;;;;;2.50;2.23;;;;;;;12.79;49.56;100913.03;5347751;26;20244;-84
2024/04/18 10:52:46;;;;;;;3.97;2.40;;;;;;;12.89;48.88;100910.59;5350888;26;20237;-85
2024/04/18 10:55:14;;;;;;;3.30;2.20;;;;;;;12.98;49.27;100909.97;5347301;26;20237;-85
2024/04/18 10:57:43;;;;;;;2.23;1.90;;;;;;;13.12;50.05;100913.38;5345761;26;20810;-84
2024/04/18 11:00:17;;;;;;;2.60;2.33;;;;;;;13.30;49.29;100910.41;5345719;26;20240;-84
2024/04/18 11:02:45;;;;;;;4.60;2.30;;;;;;;13.38;48.21;100914.28;5340411;26;20275;-84
2024/04/18 11:05:13;;;;;;;4.07;2.70;;;;;;;13.42;48.49;100914.91;5344396;26;20289;-86
2024/04/18 11:07:45;;;;;;;3.53;2.20;;;;;;;13.42;47.81;100912.25;5344221;26;20242;-85
2024/04/18 11:10:11;;;;;;;4.10;2.53;;;;;;;13.36;47.31;100913.53;5338224;26;20241;-85
2024/04/18 11:12:39;;;;;;;2.50;1.90;;;;;;;13.35;47.81;100914.47;5330771;26;20267;-85
2024/04/18 11:15:11;;;;;;;2.30;1.77;;;;;;;13.28;46.56;100910.50;5344770;26;20269;-85
2024/04/18 11:17:39;;;;;;;2.90;2.37;;;;;;;13.19;46.98;100914.72;5345188;26;20346;-85
2024/04/18 11:20:12;;;;;;;2.90;2.30;;;;;;;13.14;48.28;100915.94;5344985;26;20240;-84
2024/04/18 11:22:41;;;;;;;4.27;3.07;;;;;;;13.09;49.10;100912.72;5345489;26;20261;-84
2024/04/18 11:25:12;;;;;;;5.27;2.60;;;;;;;13.09;48.47;100913.59;5337838;26;20243;-84
2024/04/18 11:27:41;;;;;;;3.27;2.40;;;;;;;13.08;49.31;100911.88;5345521;26;20241;-84
2024/04/18 11:30:18;;;;;;;3.17;2.73;;;;;;;13.10;50.00;100909.09;5345327;26;20293;-84
2024/04/18 11:32:54;;;;;;;4.33;2.93;;;;;;;13.14;49.68;100910.59;5346899;26;20229;-83
2024/04/18 11:35:22;;;;;;;2.40;1.93;;;;;;;13.16;48.58;100912.25;5344773;26;20236;-83
2024/04/18 11:37:51;;;;;;;1.37;1.20;;;;;;;13.19;45.63;100897.81;5334160;26;20281;-83
2024/04/18 11:40:22;;;;;;;2.43;1.50;;;;;;;13.23;45.45;100898.44;5344557;26;20237;-84
2024/04/18 11:42:50;;;;;;;1.97;1.50;;;;;;;13.33;45.31;100903.03;5337244;26;20234;-84